Time;durP1;ratioP1;P1;durP2;ratioP2;P2;SDS_P1;SDS_P2;PMS_P1;PMS_P2;Temp;Humidity;BMP_temperature;BMP_pressure;BME280_temperature;BME280_humidity;BME280_pressure;Samples;Min_cycle;Max_cycle;Signal;HPM_P1;HPM_P2
2021/12/14 00:00:29;;;;;;;16.77;10.75;;;;;;;3.07;71.84;101154.24;1726948;80;21031;-57
2021/12/14 00:02:56;;;;;;;16.85;10.63;;;;;;;3.07;71.85;101156.38;1722612;80;21054;-56
2021/12/14 00:05:24;;;;;;;18.85;10.35;;;;;;;3.09;71.85;101161.53;1754458;80;21163;-56
2021/12/14 00:07:50;;;;;;;18.10;9.93;;;;;;;3.11;71.80;101162.31;1757498;80;20976;-57
2021/12/14 00:13:14;;;;;;;22.48;10.82;;;;;;;3.30;71.38;101167.71;1737570;80;21157;-57
2021/12/14 00:15:35;;;;;;;19.12;10.25;;;;;;;3.43;71.23;101166.78;1762115;80;21050;-57
2021/12/14 00:18:07;;;;;;;15.05;9.15;;;;;;;3.47;71.05;101164.02;1763065;79;21971;-57
2021/12/14 00:20:48;;;;;;;16.77;9.78;;;;;;;3.46;71.02;101166.67;1730662;80;21570;-57
2021/12/14 00:25:50;;;;;;;20.37;11.40;;;;;;;3.33;71.12;101166.30;1763925;80;21847;-56
2021/12/14 00:28:27;;;;;;;13.60;7.60;;;;;;;3.27;71.16;101161.31;1717333;82;20992;-57
2021/12/14 00:30:56;;;;;;;13.70;8.58;;;;;;;3.21;71.16;101157.20;1700500;82;22095;-56
2021/12/14 00:33:30;;;;;;;15.60;8.28;;;;;;;3.23;70.96;101164.92;1684941;82;21063;-55
2021/12/14 00:35:59;;;;;;;16.77;8.85;;;;;;;3.25;70.94;101166.57;1689199;82;21720;-57
2021/12/14 00:38:26;;;;;;;16.37;10.00;;;;;;;3.25;71.06;101165.73;1702699;82;21047;-57
2021/12/14 00:41:00;;;;;;;14.47;8.25;;;;;;;3.23;71.32;101164.92;1692396;82;21098;-59
2021/12/14 00:43:26;;;;;;;14.95;8.80;;;;;;;3.20;71.29;101164.59;1758686;79;21493;-57
2021/12/14 00:45:53;;;;;;;16.23;9.70;;;;;;;3.16;71.33;101161.27;1746154;80;21059;-57
2021/12/14 00:48:19;;;;;;;14.40;8.13;;;;;;;3.12;71.39;101162.27;1754629;80;21094;-56
2021/12/14 00:50:50;;;;;;;13.48;8.55;;;;;;;3.12;71.40;101165.33;1744615;79;21106;-57
2021/12/14 00:53:17;;;;;;;14.20;8.58;;;;;;;3.15;71.34;101158.25;1742251;79;21043;-57
2021/12/14 00:55:46;;;;;;;14.55;8.23;;;;;;;3.27;71.06;101160.02;1751966;80;21208;-57
2021/12/14 00:58:13;;;;;;;14.45;7.97;;;;;;;3.35;70.95;101157.52;1759917;80;21043;-57
2021/12/14 01:00:50;;;;;;;16.17;8.40;;;;;;;3.41;70.84;101154.29;1755469;80;21063;-56
2021/12/14 01:03:17;;;;;;;13.40;7.67;;;;;;;3.39;70.89;101151.74;1761282;80;21823;-59
2021/12/14 01:05:47;;;;;;;11.90;7.55;;;;;;;3.37;70.98;101152.72;1735910;80;21042;-57
2021/12/14 01:08:18;;;;;;;13.60;8.30;;;;;;;3.35;70.82;101156.68;1758607;80;21829;-57
2021/12/14 01:10:59;;;;;;;12.75;8.38;;;;;;;3.29;70.76;101158.20;1753897;80;21592;-57
2021/12/14 01:13:27;;;;;;;12.82;6.80;;;;;;;3.21;70.87;101154.60;1742451;80;21572;-57
2021/12/14 01:16:16;;;;;;;14.20;8.38;;;;;;;3.23;70.88;101163.62;1754979;80;21336;-56
2021/12/14 01:18:48;;;;;;;14.18;7.87;;;;;;;3.29;70.78;101163.41;1759185;80;22211;-57
2021/12/14 01:21:42;;;;;;;11.43;7.28;;;;;;;3.31;70.98;101162.45;1761503;80;21497;-56
2021/12/14 01:24:06;;;;;;;13.93;7.92;;;;;;;3.29;71.13;101162.10;1711206;80;21780;-56
2021/12/14 01:26:35;;;;;;;12.88;7.72;;;;;;;3.25;71.23;101164.44;1756692;80;21044;-57
2021/12/14 01:29:03;;;;;;;14.38;8.33;;;;;;;3.21;71.27;101166.73;1738662;81;21138;-57
2021/12/14 01:31:35;;;;;;;12.07;7.47;;;;;;;3.15;71.29;101167.81;1751667;80;21145;-57
2021/12/14 01:34:06;;;;;;;11.45;7.03;;;;;;;3.14;71.20;101165.68;1757582;80;21146;-56
2021/12/14 01:39:22;;;;;;;13.10;7.97;;;;;;;3.23;71.03;101167.09;1750569;80;21161;-57
2021/12/14 01:41:40;;;;;;;13.28;7.67;;;;;;;3.21;71.16;101165.44;1732268;81;21432;-57
2021/12/14 01:44:07;;;;;;;12.80;7.22;;;;;;;3.15;71.21;101164.76;1759303;80;21043;-57
2021/12/14 01:46:40;;;;;;;16.07;9.40;;;;;;;3.11;71.12;101170.98;1752274;80;21256;-57
2021/12/14 01:49:26;;;;;;;13.62;7.55;;;;;;;3.06;71.10;101177.23;1747201;79;21504;-57
2021/12/14 01:52:03;;;;;;;15.32;9.08;;;;;;;3.04;70.96;101174.69;1744516;80;21100;-57
2021/12/14 01:54:39;;;;;;;14.95;7.95;;;;;;;3.09;70.82;101174.53;1758084;79;21042;-57
2021/12/14 01:57:08;;;;;;;13.32;8.10;;;;;;;3.05;70.84;101180.30;1747888;80;21678;-56
2021/12/14 01:59:38;;;;;;;14.07;8.65;;;;;;;2.99;71.08;101184.41;1757619;79;21513;-57
2021/12/14 02:02:21;;;;;;;16.17;8.78;;;;;;;2.94;71.24;101180.70;1759928;80;21664;-57
2021/12/14 02:04:41;;;;;;;16.07;9.35;;;;;;;2.92;71.31;101183.78;1759863;80;21044;-58
2021/12/14 02:07:09;;;;;;;14.07;8.48;;;;;;;2.88;71.34;101174.41;1735523;80;21064;-57
2021/12/14 02:09:36;;;;;;;15.35;9.05;;;;;;;2.85;71.39;101173.67;1751846;80;21076;-57
2021/12/14 02:12:16;;;;;;;14.53;8.68;;;;;;;2.88;71.33;101172.27;1756690;80;21527;-57
2021/12/14 02:14:44;;;;;;;13.22;8.05;;;;;;;3.01;71.01;101175.26;1757215;80;21059;-56
2021/12/14 02:17:14;;;;;;;15.00;8.20;;;;;;;3.07;70.91;101169.84;1761274;80;21021;-56
2021/12/14 02:19:40;;;;;;;16.80;9.03;;;;;;;3.09;70.96;101171.50;1755526;80;21464;-57
2021/12/14 02:22:07;;;;;;;14.03;7.65;;;;;;;3.08;70.98;101168.50;1739131;81;21102;-57
2021/12/14 02:24:36;;;;;;;14.68;8.85;;;;;;;3.05;70.93;101166.00;1753708;79;21123;-57
2021/12/14 02:27:03;;;;;;;15.65;8.68;;;;;;;3.02;70.92;101168.70;1753679;80;21045;-57
2021/12/14 02:29:38;;;;;;;16.95;9.60;;;;;;;2.97;70.86;101167.56;1760679;79;21039;-57
2021/12/14 02:32:11;;;;;;;15.50;8.90;;;;;;;2.91;70.82;101167.80;1737485;81;21031;-57
2021/12/14 02:34:49;;;;;;;15.40;8.25;;;;;;;2.89;70.78;101171.34;1753520;80;21528;-57
2021/12/14 02:37:18;;;;;;;19.57;9.70;;;;;;;2.92;70.71;101169.94;1738322;80;21306;-57
2021/12/14 02:42:24;;;;;;;15.00;9.05;;;;;;;2.96;70.94;101168.95;1730639;80;21422;-57
2021/12/14 02:44:53;;;;;;;17.02;9.65;;;;;;;2.96;71.13;101164.59;1733918;81;21075;-57
2021/12/14 02:47:19;;;;;;;15.15;9.23;;;;;;;2.97;71.02;101164.12;1739413;80;21084;-58
2021/12/14 02:49:48;;;;;;;16.50;8.90;;;;;;;2.98;71.02;101169.27;1752672;80;21513;-57
2021/12/14 02:52:27;;;;;;;15.85;9.70;;;;;;;3.00;70.88;101165.78;1758044;80;21087;-57
2021/12/14 02:54:53;;;;;;;16.87;9.98;;;;;;;3.00;70.77;101167.92;1754688;79;21121;-57
2021/12/14 02:57:25;;;;;;;14.70;8.48;;;;;;;3.05;70.68;101172.96;1737126;81;21069;-58
2021/12/14 02:59:53;;;;;;;14.87;9.00;;;;;;;3.15;70.36;101172.56;1752230;79;21084;-58
2021/12/14 03:02:27;;;;;;;14.38;8.03;;;;;;;3.20;70.18;101174.16;1756424;80;21102;-57
2021/12/14 03:05:01;;;;;;;14.45;8.18;;;;;;;3.17;70.43;101176.41;1741161;80;21130;-58
2021/12/14 03:07:34;;;;;;;17.95;8.50;;;;;;;3.13;70.48;101175.67;1751760;80;21046;-57
2021/12/14 03:12:51;;;;;;;14.13;8.20;;;;;;;3.11;70.45;101176.62;1739257;81;21051;-58
2021/12/14 03:15:32;;;;;;;15.00;8.58;;;;;;;3.06;70.42;101184.61;1750114;80;23299;-58
2021/12/14 03:18:03;;;;;;;15.20;8.40;;;;;;;3.07;70.30;101188.89;1739529;80;21043;-57
2021/12/14 03:20:36;;;;;;;15.10;9.50;;;;;;;3.13;70.10;101182.17;1757316;79;21440;-58
2021/12/14 03:23:26;;;;;;;15.10;9.25;;;;;;;3.16;70.14;101187.27;1758833;80;21570;-58
2021/12/14 03:25:55;;;;;;;15.93;8.68;;;;;;;3.13;70.21;101186.54;1754114;80;21067;-57
2021/12/14 03:28:23;;;;;;;15.08;9.48;;;;;;;3.05;70.26;101188.10;1705384;82;21231;-58
2021/12/14 03:30:54;;;;;;;15.15;8.90;;;;;;;2.99;70.30;101196.11;1682199;82;21439;-58
2021/12/14 03:33:24;;;;;;;14.58;9.30;;;;;;;2.93;70.39;101189.84;1675584;82;21054;-58
2021/12/14 03:36:02;;;;;;;14.28;9.05;;;;;;;2.90;70.41;101188.19;1689977;83;21536;-58
2021/12/14 03:38:43;;;;;;;16.52;8.88;;;;;;;2.98;70.44;101186.63;1722813;80;21086;-58
2021/12/14 03:41:17;;;;;;;15.72;8.83;;;;;;;3.06;70.54;101192.84;1767333;79;21939;-57
2021/12/14 03:43:58;;;;;;;13.68;7.85;;;;;;;3.04;70.55;101188.99;1720034;82;21043;-57
2021/12/14 03:46:32;;;;;;;14.33;8.53;;;;;;;3.04;70.52;101194.66;1736797;79;21067;-57
2021/12/14 03:49:00;;;;;;;13.80;8.48;;;;;;;2.99;70.60;101189.61;1762391;80;21070;-57
2021/12/14 03:51:27;;;;;;;14.80;8.38;;;;;;;2.94;70.56;101188.92;1754624;80;21055;-57
2021/12/14 03:53:55;;;;;;;14.50;8.40;;;;;;;2.89;70.56;101191.70;1759183;79;21062;-57
2021/12/14 03:56:23;;;;;;;14.00;7.55;;;;;;;2.91;70.53;101186.46;1762351;80;21014;-57
2021/12/14 03:58:50;;;;;;;11.03;7.30;;;;;;;3.01;70.42;101189.55;1742862;80;21031;-57
2021/12/14 04:01:26;;;;;;;15.15;8.80;;;;;;;3.09;70.38;101189.70;1732636;80;21072;-57
2021/12/14 04:04:09;;;;;;;15.03;8.20;;;;;;;3.16;70.52;101185.97;1753532;80;21043;-57
2021/12/14 04:06:38;;;;;;;14.70;8.90;;;;;;;3.21;70.48;101192.31;1763566;80;21800;-57
2021/12/14 04:09:05;;;;;;;14.13;8.18;;;;;;;3.22;70.39;101192.69;1742894;80;21023;-57
2021/12/14 04:11:33;;;;;;;16.27;8.75;;;;;;;3.25;70.36;101195.65;1741531;80;21051;-57
2021/12/14 04:14:00;;;;;;;14.30;8.78;;;;;;;3.28;70.20;101198.98;1734063;80;21035;-57
2021/12/14 04:16:29;;;;;;;17.90;9.50;;;;;;;3.30;69.95;101198.92;1746749;80;21043;-57
2021/12/14 04:19:03;;;;;;;16.75;9.00;;;;;;;3.27;69.82;101204.23;1769722;80;21147;-57
2021/12/14 04:21:24;;;;;;;13.98;8.18;;;;;;;3.31;69.65;101203.20;1754746;80;21450;-57
2021/12/14 04:23:51;;;;;;;13.90;8.50;;;;;;;3.35;69.29;101200.91;1732946;80;21076;-57
2021/12/14 04:26:20;;;;;;;14.25;8.60;;;;;;;3.41;69.32;101205.86;1736316;80;22378;-57
2021/12/14 04:28:55;;;;;;;12.65;8.28;;;;;;;3.41;69.36;101200.66;1765533;80;21043;-57
2021/12/14 04:31:22;;;;;;;14.37;8.93;;;;;;;3.40;69.42;101202.88;1759151;80;21160;-57
2021/12/14 04:33:49;;;;;;;15.30;9.33;;;;;;;3.41;69.93;101202.42;1731163;80;21570;-58
2021/12/14 04:36:21;;;;;;;17.05;8.95;;;;;;;3.43;69.47;101203.20;1756646;80;21086;-58
2021/12/14 04:38:54;;;;;;;13.75;8.48;;;;;;;3.43;69.22;101208.41;1739112;80;21034;-57
2021/12/14 04:52:21;;;;;;;;;;;;;;;3.42;69.01;101223.19;1758417;80;21054;-57
2021/12/14 04:54:55;;;;;;;16.10;8.60;;;;;;;3.37;69.18;101221.20;1756408;80;20500;-57
2021/12/14 04:57:43;;;;;;;14.68;9.30;;;;;;;3.26;69.28;101222.03;1760156;80;21105;-57
2021/12/14 05:00:36;;;;;;;16.37;10.53;;;;;;;3.16;69.49;101225.41;1757359;80;21611;-58
2021/12/14 05:03:18;;;;;;;19.25;10.08;;;;;;;3.10;69.55;101225.19;1735117;80;21011;-58
2021/12/14 05:05:50;;;;;;;15.98;9.35;;;;;;;3.01;69.70;101226.83;1737703;80;21015;-56
2021/12/14 05:11:01;;;;;;;15.55;9.35;;;;;;;3.08;69.73;101229.60;1762051;79;21608;-56
2021/12/14 05:13:33;;;;;;;14.85;8.60;;;;;;;3.10;69.74;101227.79;1755998;79;21042;-57
2021/12/14 05:16:00;;;;;;;14.55;9.40;;;;;;;3.06;69.90;101237.05;1757071;79;21044;-57
2021/12/14 05:18:29;;;;;;;15.72;8.78;;;;;;;2.99;70.08;101232.51;1759263;79;21102;-57
2021/12/14 05:20:57;;;;;;;17.07;9.63;;;;;;;2.98;70.10;101234.73;1729510;79;21058;-57
2021/12/14 05:23:31;;;;;;;14.75;8.95;;;;;;;2.92;70.05;101238.83;1758368;80;21179;-57
2021/12/14 05:26:02;;;;;;;16.65;8.95;;;;;;;2.90;70.08;101240.64;1757527;80;21027;-56
2021/12/14 05:28:29;;;;;;;16.77;9.85;;;;;;;2.93;69.99;101234.88;1761955;80;21523;-57
2021/12/14 05:30:58;;;;;;;17.62;9.55;;;;;;;2.96;70.15;101241.73;1756153;80;21085;-56
2021/12/14 05:33:32;;;;;;;16.07;10.20;;;;;;;2.92;70.40;101241.43;1756413;80;21078;-58
2021/12/14 05:36:03;;;;;;;17.65;11.03;;;;;;;2.89;70.57;101246.30;1732206;79;22348;-58
2021/12/14 05:43:05;;;;;;;19.17;11.83;;;;;;;2.83;70.63;101243.06;1693287;80;21066;-57
2021/12/14 05:43:39;;;;;;;17.67;10.00;;;;;;;2.77;70.71;101242.80;1758594;80;21113;-57
2021/12/14 05:46:08;;;;;;;22.77;11.30;;;;;;;2.82;70.67;101246.55;1762154;80;21974;-58
2021/12/14 05:48:45;;;;;;;18.50;10.82;;;;;;;2.91;70.51;101245.80;1761108;80;21282;-58
2021/12/14 05:51:11;;;;;;;17.80;11.38;;;;;;;2.99;70.48;101253.31;1760982;80;21007;-58
2021/12/14 05:53:42;;;;;;;20.43;11.65;;;;;;;3.03;70.50;101244.98;1756771;79;21329;-58
2021/12/14 05:56:19;;;;;;;17.50;9.90;;;;;;;3.02;70.57;101241.97;1764832;79;21108;-58
2021/12/14 05:58:47;;;;;;;20.08;11.60;;;;;;;3.01;70.56;101252.83;1761344;80;22398;-58
2021/12/14 06:01:17;;;;;;;21.35;12.60;;;;;;;2.96;70.50;101256.04;1762211;79;22188;-57
2021/12/14 06:03:57;;;;;;;23.32;13.28;;;;;;;2.91;70.51;101253.59;1758329;80;21537;-59
2021/12/14 06:06:31;;;;;;;18.10;11.05;;;;;;;2.85;70.52;101247.75;1742144;80;21047;-58
2021/12/14 06:09:17;;;;;;;23.10;13.50;;;;;;;2.90;70.55;101256.23;1657414;83;21552;-59
2021/12/14 06:11:47;;;;;;;15.75;10.08;;;;;;;2.95;70.58;101259.06;1679612;83;21519;-58
2021/12/14 06:14:17;;;;;;;18.70;11.53;;;;;;;2.93;70.69;101251.78;1703885;82;22212;-58
2021/12/14 06:16:46;;;;;;;17.62;10.20;;;;;;;2.90;70.74;101253.18;1703871;82;21603;-58
2021/12/14 06:19:32;;;;;;;16.95;10.13;;;;;;;2.86;70.87;101257.23;1703303;82;21722;-58
2021/12/14 06:22:03;;;;;;;15.85;10.10;;;;;;;2.83;70.79;101253.46;1680662;83;21726;-59
2021/12/14 06:24:33;;;;;;;17.02;8.90;;;;;;;2.74;70.83;101255.46;1680701;82;21039;-57
2021/12/14 06:27:04;;;;;;;16.50;8.90;;;;;;;2.74;71.04;101255.46;1704006;82;21524;-57
2021/12/14 06:29:44;;;;;;;15.80;9.48;;;;;;;2.85;70.80;101265.95;1699540;82;21658;-58
2021/12/14 06:32:16;;;;;;;16.10;9.13;;;;;;;2.89;70.77;101265.80;1702226;82;21113;-57
2021/12/14 06:34:53;;;;;;;16.05;9.48;;;;;;;2.93;71.08;101265.23;1681144;82;21469;-56
2021/12/14 06:37:54;;;;;;;17.75;9.08;;;;;;;2.95;71.09;101271.23;1702004;82;21512;-56
2021/12/14 06:40:19;;;;;;;16.15;9.05;;;;;;;2.93;70.99;101273.04;1696436;82;21215;-57
2021/12/14 06:42:51;;;;;;;18.40;10.30;;;;;;;2.89;70.91;101267.52;1703259;82;21115;-57
2021/12/14 06:45:26;;;;;;;15.48;9.53;;;;;;;2.84;71.05;101266.84;1754202;80;21050;-57
2021/12/14 06:47:58;;;;;;;15.20;8.98;;;;;;;2.86;70.87;101267.63;1756099;80;21080;-57
2021/12/14 06:50:29;;;;;;;16.85;9.90;;;;;;;2.94;70.70;101266.48;1739097;81;21078;-58
2021/12/14 06:53:06;;;;;;;15.78;9.83;;;;;;;2.97;70.74;101264.22;1754018;80;21335;-58
2021/12/14 06:55:40;;;;;;;16.52;9.73;;;;;;;2.96;70.88;101262.54;1754377;80;21075;-57
2021/12/14 06:58:21;;;;;;;18.15;10.82;;;;;;;2.89;70.91;101264.92;1718268;80;21069;-57
2021/12/14 07:00:53;;;;;;;15.30;10.08;;;;;;;2.83;70.97;101259.95;1737373;80;21449;-57
2021/12/14 07:03:19;;;;;;;15.03;9.45;;;;;;;2.74;71.07;101256.77;1754396;79;21102;-57
2021/12/14 07:05:49;;;;;;;16.55;8.90;;;;;;;2.75;71.14;101263.64;1754762;80;21335;-57
2021/12/14 07:08:24;;;;;;;12.93;8.65;;;;;;;2.84;71.06;101261.64;1756665;80;21039;-57
2021/12/14 07:10:51;;;;;;;14.75;8.93;;;;;;;2.87;71.03;101266.27;1757555;80;20972;-58
2021/12/14 07:13:21;;;;;;;16.30;9.75;;;;;;;2.88;71.23;101274.48;1755666;80;21102;-57
2021/12/14 07:15:51;;;;;;;16.82;9.85;;;;;;;2.87;71.24;101271.94;1754350;80;21519;-57
2021/12/14 07:18:17;;;;;;;14.75;9.25;;;;;;;2.85;71.19;101269.84;1754232;79;21900;-57
2021/12/14 07:20:52;;;;;;;13.98;8.58;;;;;;;2.82;71.16;101271.24;1758548;79;21070;-58
2021/12/14 07:23:33;;;;;;;13.88;8.03;;;;;;;2.84;71.06;101275.93;1755408;80;21491;-58
2021/12/14 07:26:07;;;;;;;18.75;9.08;;;;;;;2.91;70.80;101274.39;1757559;80;21748;-58
2021/12/14 07:28:38;;;;;;;16.32;9.20;;;;;;;2.93;70.79;101273.04;1762029;80;21090;-58
2021/12/14 07:31:15;;;;;;;16.27;9.85;;;;;;;2.88;70.91;101277.55;1750226;80;21143;-58
2021/12/14 07:33:52;;;;;;;15.63;9.78;;;;;;;2.82;70.86;101273.84;1753543;80;21072;-57
2021/12/14 07:36:28;;;;;;;15.38;9.25;;;;;;;2.73;71.01;101281.50;1752934;80;21101;-58
2021/12/14 07:39:00;;;;;;;;;;;;;;;2.67;71.17;101281.23;1756741;80;21071;-57
2021/12/14 07:41:33;;;;;;;14.90;8.15;;;;;;;2.71;71.20;101283.31;1755294;79;20694;-57
2021/12/14 07:44:16;;;;;;;17.12;8.23;;;;;;;2.75;71.04;101280.53;1756882;80;21216;-58
2021/12/14 07:46:52;;;;;;;14.85;9.38;;;;;;;2.76;70.96;101283.55;1758896;79;21117;-57
2021/12/14 07:49:25;;;;;;;12.88;8.30;;;;;;;2.73;71.22;101284.94;1749740;80;21071;-57
2021/12/14 07:51:56;;;;;;;15.83;8.93;;;;;;;2.72;71.27;101287.16;1759481;80;21075;-57
2021/12/14 07:57:23;;;;;;;14.70;8.13;;;;;;;2.69;71.23;101281.19;1774386;78;22543;-57
2021/12/14 08:00:04;;;;;;;16.27;8.73;;;;;;;2.63;71.22;101287.44;1743236;80;21070;-58
2021/12/14 08:02:37;;;;;;;15.23;8.90;;;;;;;2.74;71.18;101293.15;1740571;80;21323;-58
2021/12/14 08:05:23;;;;;;;14.90;9.20;;;;;;;2.84;71.03;101288.93;1744455;80;22288;-59
2021/12/14 08:08:09;;;;;;;17.42;10.13;;;;;;;2.83;71.04;101285.48;1709624;81;21492;-58
2021/12/14 08:10:41;;;;;;;15.88;9.73;;;;;;;2.80;71.39;101294.69;1712142;81;21086;-59
2021/12/14 08:13:14;;;;;;;14.63;8.83;;;;;;;2.75;71.44;101287.48;1707077;82;21149;-59
2021/12/14 08:15:51;;;;;;;14.73;9.70;;;;;;;2.75;71.44;101287.48;1690966;83;21063;-58
2021/12/14 08:18:31;;;;;;;15.78;8.80;;;;;;;2.73;71.39;101288.84;1715719;82;21078;-57
2021/12/14 08:21:11;;;;;;;18.05;9.30;;;;;;;2.78;71.26;101289.99;1706595;82;21076;-58
2021/12/14 08:23:44;;;;;;;14.73;8.90;;;;;;;2.92;71.07;101289.06;1708055;82;21062;-57
2021/12/14 08:26:18;;;;;;;16.50;9.58;;;;;;;3.02;71.09;101288.77;1706306;82;21066;-58
2021/12/14 08:28:51;;;;;;;14.80;9.68;;;;;;;3.06;71.10;101290.35;1699353;82;25671;-58
2021/12/14 08:31:17;;;;;;;16.80;9.88;;;;;;;3.08;71.01;101292.02;1696474;82;21619;-58
2021/12/14 08:33:54;;;;;;;15.68;10.08;;;;;;;3.11;70.94;101288.44;1699240;82;21057;-58
2021/12/14 08:36:20;;;;;;;14.53;9.50;;;;;;;3.11;70.51;101293.22;1684254;83;21101;-57
2021/12/14 08:38:46;;;;;;;16.97;9.50;;;;;;;3.06;70.64;101283.42;1704227;82;21093;-57
2021/12/14 08:41:19;;;;;;;13.03;8.70;;;;;;;3.09;70.58;101280.72;1683801;83;21716;-58
2021/12/14 08:43:48;;;;;;;14.90;8.43;;;;;;;3.23;70.33;101278.06;1661554;82;21063;-58
2021/12/14 08:46:13;;;;;;;14.40;9.30;;;;;;;3.35;70.08;101282.85;1702602;82;21194;-58
2021/12/14 08:48:44;;;;;;;17.95;10.43;;;;;;;3.40;69.96;101285.30;1680070;82;21089;-59
2021/12/14 08:51:27;;;;;;;16.42;9.80;;;;;;;3.35;69.61;101283.69;1690669;82;21146;-59
2021/12/14 08:54:10;;;;;;;15.78;9.78;;;;;;;3.32;69.65;101286.86;1692903;83;21129;-58
2021/12/14 08:56:42;;;;;;;15.48;9.95;;;;;;;3.22;69.55;101272.48;1703791;82;21130;-58
2021/12/14 08:59:08;;;;;;;15.90;9.40;;;;;;;3.12;69.60;101277.98;1710513;82;22721;-58
2021/12/14 09:01:35;;;;;;;15.35;9.28;;;;;;;3.03;69.92;101278.32;1701098;82;21011;-58
2021/12/14 09:04:07;;;;;;;14.40;9.28;;;;;;;3.04;69.83;101281.30;1680265;82;21408;-59
2021/12/14 09:06:36;;;;;;;15.00;9.43;;;;;;;3.09;69.68;101282.02;1681972;83;21694;-58
2021/12/14 09:09:06;;;;;;;15.08;9.53;;;;;;;3.14;69.78;101281.41;1707520;82;21035;-58
2021/12/14 09:11:35;;;;;;;13.95;8.48;;;;;;;3.18;69.84;101276.95;1683902;83;21590;-59
2021/12/14 09:14:04;;;;;;;16.37;10.00;;;;;;;3.13;69.96;101279.70;1700884;82;21019;-58
2021/12/14 09:16:31;;;;;;;13.58;8.40;;;;;;;3.11;70.04;101280.20;1703202;82;21074;-58
2021/12/14 09:19:09;;;;;;;13.28;7.83;;;;;;;3.10;70.12;101273.76;1700608;82;21168;-57
2021/12/14 09:21:40;;;;;;;15.13;9.23;;;;;;;3.10;70.04;101270.70;1681920;83;21046;-57
2021/12/14 09:24:10;;;;;;;14.68;8.48;;;;;;;3.05;70.03;101270.47;1681305;82;20998;-58
2021/12/14 09:26:40;;;;;;;14.50;9.53;;;;;;;3.08;70.06;101262.56;1683244;82;21113;-59
2021/12/14 09:29:10;;;;;;;13.38;8.10;;;;;;;3.16;69.78;101258.80;1709502;82;21003;-58
2021/12/14 09:31:39;;;;;;;14.05;8.85;;;;;;;3.22;69.92;101268.58;1705707;82;21085;-60
2021/12/14 09:34:07;;;;;;;18.07;8.58;;;;;;;3.26;70.01;101268.42;1703467;82;21444;-58
2021/12/14 09:36:33;;;;;;;12.78;8.50;;;;;;;3.27;69.89;101264.91;1674021;83;22292;-59
2021/12/14 09:39:09;;;;;;;13.48;8.83;;;;;;;3.28;69.77;101264.47;1687487;83;21059;-59
2021/12/14 09:41:36;;;;;;;;;;;;;;;3.28;69.71;101264.01;1712654;82;21122;-60
2021/12/14 09:44:06;;;;;;;13.85;9.33;;;;;;;3.26;69.70;101260.63;1711625;82;21157;-60
2021/12/14 09:46:33;;;;;;;13.58;7.83;;;;;;;3.19;69.76;101263.48;1705871;82;21035;-59
2021/12/14 09:49:01;;;;;;;15.08;8.10;;;;;;;3.21;69.79;101261.67;1687647;82;21061;-59
2021/12/14 09:51:37;;;;;;;16.45;8.93;;;;;;;3.35;69.47;101265.48;1704137;82;21023;-58
2021/12/14 09:54:07;;;;;;;14.45;8.63;;;;;;;3.41;69.28;101259.66;1689362;82;21694;-59
2021/12/14 09:56:38;;;;;;;14.00;9.18;;;;;;;3.40;69.41;101261.42;1675554;83;21152;-59
2021/12/14 09:59:06;;;;;;;14.33;9.03;;;;;;;3.38;69.34;101256.73;1691959;82;21073;-59
2021/12/14 10:01:40;;;;;;;16.87;9.75;;;;;;;3.34;69.36;101268.13;1695598;82;21016;-59
2021/12/14 10:04:21;;;;;;;17.70;10.00;;;;;;;3.29;69.30;101263.09;1704377;83;21022;-59
2021/12/14 10:06:49;;;;;;;17.25;10.30;;;;;;;3.19;69.29;101253.91;1727329;80;21040;-60
2021/12/14 10:09:22;;;;;;;17.15;9.43;;;;;;;3.22;69.41;101252.98;1738951;80;21474;-60
2021/12/14 10:14:28;;;;;;;15.83;9.75;;;;;;;3.39;69.42;101251.07;1746816;81;21072;-58
2021/12/14 10:16:54;;;;;;;16.23;10.18;;;;;;;3.36;69.37;101245.51;1740422;80;21086;-59
2021/12/14 10:19:24;;;;;;;16.37;9.45;;;;;;;3.35;69.46;101246.44;1737895;80;21423;-58
2021/12/14 10:21:56;;;;;;;12.90;8.30;;;;;;;3.32;69.30;101240.03;1723837;80;21830;-58
2021/12/14 10:24:23;;;;;;;11.35;7.60;;;;;;;3.30;69.18;101243.15;1744479;81;22220;-58
2021/12/14 10:26:54;;;;;;;13.85;8.65;;;;;;;3.34;68.84;101236.92;1738024;80;21076;-59
2021/12/14 10:29:21;;;;;;;14.03;9.38;;;;;;;3.33;68.70;101245.64;1721882;80;21090;-57
2021/12/14 10:31:53;;;;;;;14.00;8.73;;;;;;;3.26;68.86;101241.55;1726506;80;21009;-59
2021/12/14 10:34:24;;;;;;;12.80;7.92;;;;;;;3.19;69.19;101234.88;1712739;80;21070;-59
2021/12/14 10:37:01;;;;;;;13.43;8.18;;;;;;;3.15;69.17;101236.73;1680101;82;21054;-59
2021/12/14 10:44:51;;;;;;;14.15;7.80;;;;;;;3.18;69.64;101222.76;1741130;81;21485;-58
2021/12/14 10:47:19;;;;;;;12.25;7.75;;;;;;;3.25;68.94;101225.09;1750099;80;21042;-58
2021/12/14 10:49:46;;;;;;;14.47;8.18;;;;;;;3.25;68.99;101221.20;1742677;81;21088;-59
2021/12/14 10:52:16;;;;;;;12.00;7.97;;;;;;;3.23;69.11;101225.61;1740297;80;21080;-58
2021/12/14 10:54:46;;;;;;;15.00;8.75;;;;;;;3.20;69.06;101234.82;1741961;80;21712;-59
2021/12/14 10:57:16;;;;;;;12.82;8.15;;;;;;;3.12;69.04;101235.54;1740964;80;20976;-58
2021/12/14 10:59:45;;;;;;;14.40;8.40;;;;;;;3.04;69.30;101237.55;1717448;80;22123;-57
2021/12/14 11:02:11;;;;;;;15.20;8.48;;;;;;;3.00;69.38;101238.13;1732856;80;21368;-59
2021/12/14 11:04:56;;;;;;;14.23;8.03;;;;;;;3.09;69.49;101237.81;1740877;80;21439;-59
2021/12/14 11:07:34;;;;;;;13.15;7.80;;;;;;;3.16;69.36;101240.59;1681031;83;21094;-59
2021/12/14 11:10:23;;;;;;;13.45;8.40;;;;;;;3.19;69.54;101242.21;1699762;82;21562;-59
2021/12/14 11:12:54;;;;;;;14.53;8.33;;;;;;;3.20;69.82;101243.08;1739560;80;21130;-58
2021/12/14 11:15:36;;;;;;;15.13;8.05;;;;;;;3.21;69.72;101243.46;1724247;80;21146;-58
2021/12/14 11:18:11;;;;;;;13.78;8.00;;;;;;;3.21;69.76;101248.66;1674298;83;21018;-59
2021/12/14 11:21:01;;;;;;;14.05;8.88;;;;;;;3.19;69.78;101245.27;1697637;82;21565;-59
2021/12/14 11:23:38;;;;;;;13.68;7.90;;;;;;;3.21;69.80;101246.06;1691928;82;21110;-59
2021/12/14 11:26:23;;;;;;;14.43;8.93;;;;;;;3.29;69.63;101246.64;1694857;82;21110;-60
2021/12/14 11:29:00;;;;;;;16.87;10.00;;;;;;;3.42;69.40;101245.30;1671093;83;21015;-60
2021/12/14 11:31:38;;;;;;;12.88;8.73;;;;;;;3.51;69.19;101243.67;1669929;84;21508;-59
2021/12/14 11:34:12;;;;;;;15.85;10.35;;;;;;;3.56;69.26;101246.08;1697090;83;21133;-59
2021/12/14 11:36:53;;;;;;;14.80;8.78;;;;;;;3.56;69.23;101241.34;1700583;83;21369;-60
2021/12/14 11:39:27;;;;;;;14.70;8.80;;;;;;;3.54;69.07;101239.63;1664262;83;21592;-59
2021/12/14 11:42:06;;;;;;;16.12;9.88;;;;;;;3.54;69.04;101240.94;1674038;83;21530;-58
2021/12/14 11:44:50;;;;;;;17.57;9.78;;;;;;;3.50;68.72;101244.56;1682611;83;21024;-60
2021/12/14 11:50:32;;;;;;;14.95;9.00;;;;;;;3.32;69.07;101232.23;1693738;83;21103;-59
2021/12/14 11:53:07;;;;;;;16.62;9.33;;;;;;;3.27;68.96;101227.19;1689866;83;23033;-59
2021/12/14 11:55:47;;;;;;;14.98;9.45;;;;;;;3.31;68.97;101234.42;1670385;83;21074;-59
2021/12/14 11:58:35;;;;;;;13.60;9.55;;;;;;;3.32;69.17;101236.13;1693058;82;21012;-58
2021/12/14 12:01:16;;;;;;;17.62;10.78;;;;;;;3.30;69.30;101240.55;1702526;82;21106;-59
2021/12/14 12:04:05;;;;;;;18.20;10.85;;;;;;;3.25;69.56;101234.66;1702362;82;21025;-58
2021/12/14 12:09:42;;;;;;;16.32;9.78;;;;;;;3.16;69.72;101230.61;1669239;82;21137;-58
2021/12/14 12:12:28;;;;;;;17.82;10.90;;;;;;;3.15;69.87;101222.44;1702354;82;21155;-58
2021/12/14 12:15:14;;;;;;;15.50;9.45;;;;;;;3.26;69.65;101227.23;1676931;83;21050;-58
2021/12/14 12:17:51;;;;;;;17.02;10.28;;;;;;;3.38;69.70;101226.81;1703479;82;21412;-59
2021/12/14 12:20:28;;;;;;;17.20;9.70;;;;;;;3.49;69.63;101226.41;1743022;80;21111;-58
2021/12/14 12:23:10;;;;;;;17.17;10.05;;;;;;;3.52;69.48;101229.73;1740403;80;21510;-58
2021/12/14 12:25:43;;;;;;;16.82;10.15;;;;;;;3.53;69.27;101230.58;1735970;80;21102;-58
2021/12/14 12:28:25;;;;;;;14.60;10.53;;;;;;;3.45;68.86;101230.04;1744982;80;21078;-59
2021/12/14 12:31:06;;;;;;;16.10;10.05;;;;;;;3.37;68.92;101234.67;1742349;80;21660;-59
2021/12/14 12:33:34;;;;;;;18.77;10.10;;;;;;;3.28;69.10;101234.09;1739375;80;21140;-59
2021/12/14 12:36:25;;;;;;;13.48;8.68;;;;;;;3.22;69.30;101232.16;1738588;80;21149;-59